sensor_id;sensor_type;location;lat;lon;timestamp;P1;durP1;ratioP1;P2;durP2;ratioP2
55170;SDS011;41060;47.510;8.680;2022-09-03T00:02:12;4.40;;;1.98;;
55170;SDS011;41060;47.510;8.680;2022-09-03T00:04:46;1.92;;;1.67;;
55170;SDS011;41060;47.510;8.680;2022-09-03T00:07:19;2.95;;;1.60;;
55170;SDS011;41060;47.510;8.680;2022-09-03T00:09:56;2.58;;;2.05;;
55170;SDS011;41060;47.510;8.680;2022-09-03T00:12:28;4.20;;;1.95;;
55170;SDS011;41060;47.510;8.680;2022-09-03T00:15:03;3.00;;;2.10;;
55170;SDS011;41060;47.510;8.680;2022-09-03T00:17:33;3.42;;;2.38;;
55170;SDS011;41060;47.510;8.680;2022-09-03T00:20:07;3.42;;;2.20;;
55170;SDS011;41060;47.510;8.680;2022-09-03T00:22:39;3.80;;;2.22;;
55170;SDS011;41060;47.510;8.680;2022-09-03T00:25:12;3.67;;;2.28;;
55170;SDS011;41060;47.510;8.680;2022-09-03T00:27:42;1.88;;;1.70;;
55170;SDS011;41060;47.510;8.680;2022-09-03T00:30:15;4.68;;;2.33;;
55170;SDS011;41060;47.510;8.680;2022-09-03T00:32:44;2.70;;;1.70;;
55170;SDS011;41060;47.510;8.680;2022-09-03T00:35:15;4.47;;;2.10;;
55170;SDS011;41060;47.510;8.680;2022-09-03T00:37:47;7.53;;;2.20;;
55170;SDS011;41060;47.510;8.680;2022-09-03T00:40:20;2.70;;;1.90;;
55170;SDS011;41060;47.510;8.680;2022-09-03T00:42:59;4.57;;;1.80;;
55170;SDS011;41060;47.510;8.680;2022-09-03T00:45:40;2.70;;;1.90;;
55170;SDS011;41060;47.510;8.680;2022-09-03T00:48:16;3.17;;;2.28;;
55170;SDS011;41060;47.510;8.680;2022-09-03T00:50:52;2.22;;;1.98;;
55170;SDS011;41060;47.510;8.680;2022-09-03T00:53:32;2.88;;;2.13;;
55170;SDS011;41060;47.510;8.680;2022-09-03T00:56:11;2.42;;;1.52;;
55170;SDS011;41060;47.510;8.680;2022-09-03T00:58:51;5.22;;;2.05;;
55170;SDS011;41060;47.510;8.680;2022-09-03T01:01:32;3.88;;;1.42;;
55170;SDS011;41060;47.510;8.680;2022-09-03T01:04:07;3.10;;;1.58;;
55170;SDS011;41060;47.510;8.680;2022-09-03T01:06:48;3.65;;;1.77;;
55170;SDS011;41060;47.510;8.680;2022-09-03T01:09:24;2.83;;;2.13;;
55170;SDS011;41060;47.510;8.680;2022-09-03T01:12:04;4.95;;;2.15;;
55170;SDS011;41060;47.510;8.680;2022-09-03T01:14:46;4.63;;;2.30;;
55170;SDS011;41060;47.510;8.680;2022-09-03T01:17:27;3.72;;;2.50;;
55170;SDS011;41060;47.510;8.680;2022-09-03T01:20:07;5.05;;;2.90;;
55170;SDS011;41060;47.510;8.680;2022-09-03T01:22:57;4.20;;;2.83;;
55170;SDS011;41060;47.510;8.680;2022-09-03T01:25:48;5.10;;;2.85;;
55170;SDS011;41060;47.510;8.680;2022-09-03T01:28:24;4.35;;;3.00;;
55170;SDS011;41060;47.510;8.680;2022-09-03T01:31:05;4.55;;;2.40;;
55170;SDS011;41060;47.510;8.680;2022-09-03T01:33:41;4.10;;;2.70;;
55170;SDS011;41060;47.510;8.680;2022-09-03T01:36:17;3.72;;;2.05;;
55170;SDS011;41060;47.510;8.680;2022-09-03T01:38:52;4.45;;;2.60;;
55170;SDS011;41060;47.510;8.680;2022-09-03T01:41:26;4.65;;;3.08;;
55170;SDS011;41060;47.510;8.680;2022-09-03T01:44:27;4.60;;;2.42;;
55170;SDS011;41060;47.510;8.680;2022-09-03T01:47:08;4.10;;;2.58;;
55170;SDS011;41060;47.510;8.680;2022-09-03T01:49:43;4.20;;;2.35;;
55170;SDS011;41060;47.510;8.680;2022-09-03T01:52:17;11.70;;;2.63;;
55170;SDS011;41060;47.510;8.680;2022-09-03T01:54:58;4.72;;;2.58;;
55170;SDS011;41060;47.510;8.680;2022-09-03T01:57:38;3.45;;;2.05;;
55170;SDS011;41060;47.510;8.680;2022-09-03T02:00:13;4.00;;;2.50;;
55170;SDS011;41060;47.510;8.680;2022-09-03T02:02:45;4.72;;;2.65;;
55170;SDS011;41060;47.510;8.680;2022-09-03T02:05:15;5.70;;;2.80;;
55170;SDS011;41060;47.510;8.680;2022-09-03T02:07:45;4.35;;;2.60;;
55170;SDS011;41060;47.510;8.680;2022-09-03T02:10:16;3.53;;;2.85;;
55170;SDS011;41060;47.510;8.680;2022-09-03T02:12:46;3.40;;;2.28;;
55170;SDS011;41060;47.510;8.680;2022-09-03T02:15:18;6.35;;;2.40;;
55170;SDS011;41060;47.510;8.680;2022-09-03T02:17:48;3.88;;;2.70;;
55170;SDS011;41060;47.510;8.680;2022-09-03T02:20:20;4.28;;;2.38;;
55170;SDS011;41060;47.510;8.680;2022-09-03T02:22:49;6.97;;;2.47;;
55170;SDS011;41060;47.510;8.680;2022-09-03T02:25:18;4.25;;;2.22;;
55170;SDS011;41060;47.510;8.680;2022-09-03T02:27:46;5.20;;;3.13;;
55170;SDS011;41060;47.510;8.680;2022-09-03T02:30:15;4.95;;;3.00;;
55170;SDS011;41060;47.510;8.680;2022-09-03T02:32:44;4.57;;;2.67;;
55170;SDS011;41060;47.510;8.680;2022-09-03T02:35:10;6.00;;;2.45;;
55170;SDS011;41060;47.510;8.680;2022-09-03T02:37:38;5.13;;;3.30;;
55170;SDS011;41060;47.510;8.680;2022-09-03T02:40:05;3.60;;;2.42;;
55170;SDS011;41060;47.510;8.680;2022-09-03T02:42:34;4.15;;;2.45;;
55170;SDS011;41060;47.510;8.680;2022-09-03T02:45:06;5.65;;;2.63;;
55170;SDS011;41060;47.510;8.680;2022-09-03T02:47:45;3.15;;;2.42;;
55170;SDS011;41060;47.510;8.680;2022-09-03T02:50:17;7.10;;;2.45;;
55170;SDS011;41060;47.510;8.680;2022-09-03T02:52:43;4.85;;;2.70;;
55170;SDS011;41060;47.510;8.680;2022-09-03T02:55:10;3.03;;;2.38;;
55170;SDS011;41060;47.510;8.680;2022-09-03T02:57:38;3.13;;;2.30;;
55170;SDS011;41060;47.510;8.680;2022-09-03T03:00:05;3.65;;;2.22;;
55170;SDS011;41060;47.510;8.680;2022-09-03T03:02:32;4.07;;;2.60;;
55170;SDS011;41060;47.510;8.680;2022-09-03T03:05:01;4.15;;;2.60;;
55170;SDS011;41060;47.510;8.680;2022-09-03T03:07:28;3.20;;;2.30;;
55170;SDS011;41060;47.510;8.680;2022-09-03T03:10:00;3.80;;;2.22;;
55170;SDS011;41060;47.510;8.680;2022-09-03T03:12:26;3.42;;;2.35;;
55170;SDS011;41060;47.510;8.680;2022-09-03T03:14:55;3.78;;;1.95;;
55170;SDS011;41060;47.510;8.680;2022-09-03T03:17:22;3.40;;;2.00;;
55170;SDS011;41060;47.510;8.680;2022-09-03T03:19:50;3.53;;;2.30;;
55170;SDS011;41060;47.510;8.680;2022-09-03T03:22:18;4.47;;;2.22;;
55170;SDS011;41060;47.510;8.680;2022-09-03T03:24:45;2.70;;;2.00;;
55170;SDS011;41060;47.510;8.680;2022-09-03T03:27:14;4.47;;;1.98;;
55170;SDS011;41060;47.510;8.680;2022-09-03T03:29:41;3.60;;;2.33;;
55170;SDS011;41060;47.510;8.680;2022-09-03T03:32:08;3.40;;;1.95;;
55170;SDS011;41060;47.510;8.680;2022-09-03T03:34:35;5.28;;;2.00;;
55170;SDS011;41060;47.510;8.680;2022-09-03T03:37:02;2.95;;;1.98;;
55170;SDS011;41060;47.510;8.680;2022-09-03T03:39:31;3.75;;;2.05;;
55170;SDS011;41060;47.510;8.680;2022-09-03T03:41:58;3.92;;;2.20;;
55170;SDS011;41060;47.510;8.680;2022-09-03T03:44:25;1.90;;;1.58;;
55170;SDS011;41060;47.510;8.680;2022-09-03T03:46:52;3.53;;;2.25;;
55170;SDS011;41060;47.510;8.680;2022-09-03T03:49:19;3.75;;;1.85;;
55170;SDS011;41060;47.510;8.680;2022-09-03T03:51:45;4.13;;;1.88;;
55170;SDS011;41060;47.510;8.680;2022-09-03T03:54:13;2.35;;;1.60;;
55170;SDS011;41060;47.510;8.680;2022-09-03T03:56:41;3.33;;;1.90;;
55170;SDS011;41060;47.510;8.680;2022-09-03T03:59:08;2.40;;;1.45;;
55170;SDS011;41060;47.510;8.680;2022-09-03T04:01:35;3.60;;;1.70;;
55170;SDS011;41060;47.510;8.680;2022-09-03T04:04:02;3.10;;;1.48;;
55170;SDS011;41060;47.510;8.680;2022-09-03T04:06:29;5.32;;;1.83;;
55170;SDS011;41060;47.510;8.680;2022-09-03T04:09:01;2.38;;;1.50;;
55170;SDS011;41060;47.510;8.680;2022-09-03T04:11:27;3.28;;;1.50;;
55170;SDS011;41060;47.510;8.680;2022-09-03T04:13:55;3.22;;;2.00;;
55170;SDS011;41060;47.510;8.680;2022-09-03T04:16:23;2.13;;;1.30;;
55170;SDS011;41060;47.510;8.680;2022-09-03T04:18:51;1.85;;;1.08;;
55170;SDS011;41060;47.510;8.680;2022-09-03T04:21:19;1.75;;;1.40;;
55170;SDS011;41060;47.510;8.680;2022-09-03T04:23:48;2.60;;;1.38;;
55170;SDS011;41060;47.510;8.680;2022-09-03T04:26:17;1.85;;;1.50;;
55170;SDS011;41060;47.510;8.680;2022-09-03T04:28:46;2.35;;;1.40;;
55170;SDS011;41060;47.510;8.680;2022-09-03T04:31:16;1.70;;;1.30;;
55170;SDS011;41060;47.510;8.680;2022-09-03T04:33:45;1.98;;;1.42;;
55170;SDS011;41060;47.510;8.680;2022-09-03T04:36:12;3.05;;;1.58;;
55170;SDS011;41060;47.510;8.680;2022-09-03T04:38:41;2.42;;;1.10;;
55170;SDS011;41060;47.510;8.680;2022-09-03T04:41:10;2.35;;;1.75;;
55170;SDS011;41060;47.510;8.680;2022-09-03T04:43:39;1.67;;;1.20;;
55170;SDS011;41060;47.510;8.680;2022-09-03T04:46:07;4.68;;;1.88;;
55170;SDS011;41060;47.510;8.680;2022-09-03T04:48:35;2.25;;;1.63;;
55170;SDS011;41060;47.510;8.680;2022-09-03T04:51:03;2.00;;;1.20;;
55170;SDS011;41060;47.510;8.680;2022-09-03T04:53:32;2.63;;;1.63;;
55170;SDS011;41060;47.510;8.680;2022-09-03T04:55:59;2.38;;;1.60;;
55170;SDS011;41060;47.510;8.680;2022-09-03T04:58:26;3.92;;;1.77;;
55170;SDS011;41060;47.510;8.680;2022-09-03T05:00:54;2.45;;;1.65;;
55170;SDS011;41060;47.510;8.680;2022-09-03T05:03:21;2.08;;;1.23;;
55170;SDS011;41060;47.510;8.680;2022-09-03T05:05:52;2.00;;;1.10;;
55170;SDS011;41060;47.510;8.680;2022-09-03T05:08:20;2.03;;;1.30;;
55170;SDS011;41060;47.510;8.680;2022-09-03T05:10:48;4.80;;;1.40;;
55170;SDS011;41060;47.510;8.680;2022-09-03T05:13:15;2.47;;;1.23;;
55170;SDS011;41060;47.510;8.680;2022-09-03T05:15:42;1.27;;;1.00;;
55170;SDS011;41060;47.510;8.680;2022-09-03T05:18:09;3.47;;;0.90;;
55170;SDS011;41060;47.510;8.680;2022-09-03T05:20:37;1.25;;;0.93;;
55170;SDS011;41060;47.510;8.680;2022-09-03T05:23:06;2.42;;;1.05;;
55170;SDS011;41060;47.510;8.680;2022-09-03T05:25:33;0.93;;;0.60;;
55170;SDS011;41060;47.510;8.680;2022-09-03T05:28:02;3.03;;;1.20;;
55170;SDS011;41060;47.510;8.680;2022-09-03T05:30:29;2.65;;;1.23;;
55170;SDS011;41060;47.510;8.680;2022-09-03T05:32:56;2.58;;;1.13;;
55170;SDS011;41060;47.510;8.680;2022-09-03T05:35:25;1.77;;;1.20;;
55170;SDS011;41060;47.510;8.680;2022-09-03T05:37:55;2.25;;;1.00;;
55170;SDS011;41060;47.510;8.680;2022-09-03T05:40:25;2.72;;;1.70;;
55170;SDS011;41060;47.510;8.680;2022-09-03T05:42:53;1.60;;;1.20;;
55170;SDS011;41060;47.510;8.680;2022-09-03T05:45:23;1.13;;;0.93;;
55170;SDS011;41060;47.510;8.680;2022-09-03T05:47:49;2.17;;;1.00;;
55170;SDS011;41060;47.510;8.680;2022-09-03T05:50:17;1.33;;;0.70;;
55170;SDS011;41060;47.510;8.680;2022-09-03T05:52:43;1.77;;;1.10;;
55170;SDS011;41060;47.510;8.680;2022-09-03T05:55:10;2.13;;;0.80;;
55170;SDS011;41060;47.510;8.680;2022-09-03T05:57:38;1.45;;;0.93;;
55170;SDS011;41060;47.510;8.680;2022-09-03T06:00:06;1.45;;;0.90;;
55170;SDS011;41060;47.510;8.680;2022-09-03T06:02:34;1.35;;;0.80;;
55170;SDS011;41060;47.510;8.680;2022-09-03T06:05:03;2.47;;;1.08;;
55170;SDS011;41060;47.510;8.680;2022-09-03T06:07:31;1.50;;;0.85;;
55170;SDS011;41060;47.510;8.680;2022-09-03T06:09:58;2.10;;;1.25;;
55170;SDS011;41060;47.510;8.680;2022-09-03T06:12:25;1.55;;;1.08;;
55170;SDS011;41060;47.510;8.680;2022-09-03T06:14:59;2.28;;;1.50;;
55170;SDS011;41060;47.510;8.680;2022-09-03T06:17:26;4.18;;;1.23;;
55170;SDS011;41060;47.510;8.680;2022-09-03T06:19:53;2.58;;;1.13;;
55170;SDS011;41060;47.510;8.680;2022-09-03T06:22:20;2.00;;;1.27;;
55170;SDS011;41060;47.510;8.680;2022-09-03T06:24:49;2.72;;;1.42;;
55170;SDS011;41060;47.510;8.680;2022-09-03T06:27:16;2.20;;;0.80;;
55170;SDS011;41060;47.510;8.680;2022-09-03T06:29:45;1.40;;;0.88;;
55170;SDS011;41060;47.510;8.680;2022-09-03T06:32:14;2.38;;;1.20;;
55170;SDS011;41060;47.510;8.680;2022-09-03T06:34:41;4.00;;;1.30;;
55170;SDS011;41060;47.510;8.680;2022-09-03T06:37:08;4.07;;;0.93;;
55170;SDS011;41060;47.510;8.680;2022-09-03T06:39:35;2.25;;;0.85;;
55170;SDS011;41060;47.510;8.680;2022-09-03T06:42:03;4.85;;;1.77;;
55170;SDS011;41060;47.510;8.680;2022-09-03T06:44:30;2.35;;;1.08;;
55170;SDS011;41060;47.510;8.680;2022-09-03T06:46:58;2.38;;;1.30;;
55170;SDS011;41060;47.510;8.680;2022-09-03T06:49:26;3.00;;;1.33;;
55170;SDS011;41060;47.510;8.680;2022-09-03T06:51:54;3.45;;;1.10;;
55170;SDS011;41060;47.510;8.680;2022-09-03T06:54:22;2.25;;;1.38;;
55170;SDS011;41060;47.510;8.680;2022-09-03T06:56:50;5.35;;;1.67;;
55170;SDS011;41060;47.510;8.680;2022-09-03T06:59:17;2.50;;;1.33;;
55170;SDS011;41060;47.510;8.680;2022-09-03T07:01:44;3.15;;;1.27;;
55170;SDS011;41060;47.510;8.680;2022-09-03T07:04:12;2.17;;;1.15;;
55170;SDS011;41060;47.510;8.680;2022-09-03T07:06:41;5.32;;;1.55;;
55170;SDS011;41060;47.510;8.680;2022-09-03T07:09:10;2.83;;;1.73;;
55170;SDS011;41060;47.510;8.680;2022-09-03T07:11:39;2.65;;;1.48;;
55170;SDS011;41060;47.510;8.680;2022-09-03T07:14:11;3.65;;;1.90;;
55170;SDS011;41060;47.510;8.680;2022-09-03T07:16:39;2.80;;;1.83;;
55170;SDS011;41060;47.510;8.680;2022-09-03T07:19:07;3.78;;;1.42;;
55170;SDS011;41060;47.510;8.680;2022-09-03T07:21:38;3.15;;;1.67;;
55170;SDS011;41060;47.510;8.680;2022-09-03T07:24:07;2.28;;;1.42;;
55170;SDS011;41060;47.510;8.680;2022-09-03T07:26:35;5.03;;;1.60;;
55170;SDS011;41060;47.510;8.680;2022-09-03T07:29:04;2.88;;;1.55;;
55170;SDS011;41060;47.510;8.680;2022-09-03T07:31:33;2.63;;;1.83;;
55170;SDS011;41060;47.510;8.680;2022-09-03T07:34:01;2.75;;;1.52;;
55170;SDS011;41060;47.510;8.680;2022-09-03T07:36:33;2.40;;;1.50;;
55170;SDS011;41060;47.510;8.680;2022-09-03T07:39:06;3.10;;;1.50;;
55170;SDS011;41060;47.510;8.680;2022-09-03T07:41:36;3.03;;;1.70;;
55170;SDS011;41060;47.510;8.680;2022-09-03T07:44:03;2.28;;;1.77;;
55170;SDS011;41060;47.510;8.680;2022-09-03T07:46:33;2.63;;;1.50;;
55170;SDS011;41060;47.510;8.680;2022-09-03T07:49:02;2.50;;;1.50;;
55170;SDS011;41060;47.510;8.680;2022-09-03T07:51:30;3.78;;;1.38;;
55170;SDS011;41060;47.510;8.680;2022-09-03T07:54:00;2.58;;;1.27;;
55170;SDS011;41060;47.510;8.680;2022-09-03T07:56:31;2.83;;;1.40;;
55170;SDS011;41060;47.510;8.680;2022-09-03T07:58:59;2.00;;;1.10;;
55170;SDS011;41060;47.510;8.680;2022-09-03T08:01:27;2.28;;;1.52;;
55170;SDS011;41060;47.510;8.680;2022-09-03T08:03:57;1.98;;;1.05;;
55170;SDS011;41060;47.510;8.680;2022-09-03T08:06:25;3.00;;;1.70;;
55170;SDS011;41060;47.510;8.680;2022-09-03T08:08:53;2.17;;;1.33;;
55170;SDS011;41060;47.510;8.680;2022-09-03T08:11:23;1.92;;;1.10;;
55170;SDS011;41060;47.510;8.680;2022-09-03T08:13:54;1.90;;;1.42;;
55170;SDS011;41060;47.510;8.680;2022-09-03T08:16:26;2.17;;;1.33;;
55170;SDS011;41060;47.510;8.680;2022-09-03T08:18:54;2.15;;;1.33;;
55170;SDS011;41060;47.510;8.680;2022-09-03T08:21:20;1.58;;;1.20;;
55170;SDS011;41060;47.510;8.680;2022-09-03T08:23:49;2.78;;;1.35;;
55170;SDS011;41060;47.510;8.680;2022-09-03T08:26:19;2.70;;;1.30;;
55170;SDS011;41060;47.510;8.680;2022-09-03T08:28:47;2.30;;;1.02;;
55170;SDS011;41060;47.510;8.680;2022-09-03T08:31:16;1.98;;;1.23;;
55170;SDS011;41060;47.510;8.680;2022-09-03T08:33:45;3.10;;;1.30;;
55170;SDS011;41060;47.510;8.680;2022-09-03T08:36:14;2.85;;;1.30;;
55170;SDS011;41060;47.510;8.680;2022-09-03T08:38:44;2.33;;;1.17;;
55170;SDS011;41060;47.510;8.680;2022-09-03T08:41:15;2.25;;;1.10;;
55170;SDS011;41060;47.510;8.680;2022-09-03T08:43:51;2.92;;;1.25;;
55170;SDS011;41060;47.510;8.680;2022-09-03T08:46:32;2.10;;;1.13;;
55170;SDS011;41060;47.510;8.680;2022-09-03T08:49:07;1.92;;;1.23;;
55170;SDS011;41060;47.510;8.680;2022-09-03T08:51:38;1.95;;;1.02;;
55170;SDS011;41060;47.510;8.680;2022-09-03T08:54:08;3.38;;;1.30;;
55170;SDS011;41060;47.510;8.680;2022-09-03T08:56:37;2.10;;;1.25;;
55170;SDS011;41060;47.510;8.680;2022-09-03T08:59:06;3.55;;;1.15;;
55170;SDS011;41060;47.510;8.680;2022-09-03T09:01:38;3.85;;;1.13;;
55170;SDS011;41060;47.510;8.680;2022-09-03T09:04:15;3.20;;;1.27;;
55170;SDS011;41060;47.510;8.680;2022-09-03T09:06:57;2.08;;;1.23;;
55170;SDS011;41060;47.510;8.680;2022-09-03T09:09:31;4.70;;;1.15;;
55170;SDS011;41060;47.510;8.680;2022-09-03T09:12:09;2.45;;;1.02;;
55170;SDS011;41060;47.510;8.680;2022-09-03T09:14:44;1.58;;;1.20;;
55170;SDS011;41060;47.510;8.680;2022-09-03T09:17:27;9.52;;;1.58;;
55170;SDS011;41060;47.510;8.680;2022-09-03T09:20:09;2.05;;;1.10;;
55170;SDS011;41060;47.510;8.680;2022-09-03T09:22:45;2.25;;;1.10;;
55170;SDS011;41060;47.510;8.680;2022-09-03T09:25:17;1.83;;;1.10;;
55170;SDS011;41060;47.510;8.680;2022-09-03T09:27:47;2.33;;;1.60;;
55170;SDS011;41060;47.510;8.680;2022-09-03T09:30:17;2.45;;;1.65;;
55170;SDS011;41060;47.510;8.680;2022-09-03T09:32:46;2.55;;;1.40;;
55170;SDS011;41060;47.510;8.680;2022-09-03T09:35:14;2.38;;;1.30;;
55170;SDS011;41060;47.510;8.680;2022-09-03T09:37:47;2.28;;;1.08;;
55170;SDS011;41060;47.510;8.680;2022-09-03T09:40:22;2.58;;;1.45;;
55170;SDS011;41060;47.510;8.680;2022-09-03T09:43:08;1.83;;;1.15;;
55170;SDS011;41060;47.510;8.680;2022-09-03T09:45:38;2.45;;;1.25;;
55170;SDS011;41060;47.510;8.680;2022-09-03T09:48:14;1.92;;;1.13;;
55170;SDS011;41060;47.510;8.680;2022-09-03T09:50:44;2.28;;;1.13;;
55170;SDS011;41060;47.510;8.680;2022-09-03T09:53:11;2.05;;;1.13;;
55170;SDS011;41060;47.510;8.680;2022-09-03T09:55:51;1.88;;;1.38;;
55170;SDS011;41060;47.510;8.680;2022-09-03T09:58:20;2.70;;;1.48;;
55170;SDS011;41060;47.510;8.680;2022-09-03T10:00:58;2.42;;;1.10;;
55170;SDS011;41060;47.510;8.680;2022-09-03T10:03:31;2.20;;;1.05;;
55170;SDS011;41060;47.510;8.680;2022-09-03T10:06:06;1.58;;;1.13;;
55170;SDS011;41060;47.510;8.680;2022-09-03T10:09:03;2.33;;;1.38;;
55170;SDS011;41060;47.510;8.680;2022-09-03T10:11:32;5.43;;;1.38;;
55170;SDS011;41060;47.510;8.680;2022-09-03T10:14:07;1.52;;;0.93;;
55170;SDS011;41060;47.510;8.680;2022-09-03T10:16:41;1.27;;;1.08;;
55170;SDS011;41060;47.510;8.680;2022-09-03T10:19:16;1.25;;;0.80;;
55170;SDS011;41060;47.510;8.680;2022-09-03T10:21:47;3.53;;;1.00;;
55170;SDS011;41060;47.510;8.680;2022-09-03T10:24:39;2.60;;;1.10;;
55170;SDS011;41060;47.510;8.680;2022-09-03T10:27:15;1.30;;;0.90;;
55170;SDS011;41060;47.510;8.680;2022-09-03T10:29:44;2.30;;;1.13;;
55170;SDS011;41060;47.510;8.680;2022-09-03T10:32:29;4.88;;;1.20;;
55170;SDS011;41060;47.510;8.680;2022-09-03T10:35:05;1.05;;;0.73;;
55170;SDS011;41060;47.510;8.680;2022-09-03T10:37:40;1.98;;;1.10;;
55170;SDS011;41060;47.510;8.680;2022-09-03T10:40:16;2.45;;;1.25;;
55170;SDS011;41060;47.510;8.680;2022-09-03T10:42:57;2.70;;;0.93;;
55170;SDS011;41060;47.510;8.680;2022-09-03T10:45:36;1.83;;;0.82;;
55170;SDS011;41060;47.510;8.680;2022-09-03T10:48:26;1.70;;;1.20;;
55170;SDS011;41060;47.510;8.680;2022-09-03T10:51:11;1.80;;;1.00;;
55170;SDS011;41060;47.510;8.680;2022-09-03T10:56:45;3.53;;;1.30;;
55170;SDS011;41060;47.510;8.680;2022-09-03T11:02:16;2.10;;;1.17;;
55170;SDS011;41060;47.510;8.680;2022-09-03T11:04:55;2.40;;;1.40;;
55170;SDS011;41060;47.510;8.680;2022-09-03T11:07:32;3.35;;;1.15;;
55170;SDS011;41060;47.510;8.680;2022-09-03T11:10:08;2.83;;;1.30;;
55170;SDS011;41060;47.510;8.680;2022-09-03T11:12:42;1.67;;;1.17;;
55170;SDS011;41060;47.510;8.680;2022-09-03T11:15:13;2.25;;;1.05;;
55170;SDS011;41060;47.510;8.680;2022-09-03T11:20:16;2.65;;;1.08;;
55170;SDS011;41060;47.510;8.680;2022-09-03T11:22:47;1.40;;;0.98;;
55170;SDS011;41060;47.510;8.680;2022-09-03T11:25:17;1.52;;;0.98;;
55170;SDS011;41060;47.510;8.680;2022-09-03T11:27:51;1.77;;;0.90;;
55170;SDS011;41060;47.510;8.680;2022-09-03T11:30:25;1.63;;;1.00;;
55170;SDS011;41060;47.510;8.680;2022-09-03T11:33:04;1.23;;;0.82;;
55170;SDS011;41060;47.510;8.680;2022-09-03T11:35:37;1.42;;;1.00;;
55170;SDS011;41060;47.510;8.680;2022-09-03T11:38:18;3.90;;;0.88;;
55170;SDS011;41060;47.510;8.680;2022-09-03T11:40:58;2.10;;;0.82;;
55170;SDS011;41060;47.510;8.680;2022-09-03T11:43:29;1.92;;;0.77;;
55170;SDS011;41060;47.510;8.680;2022-09-03T11:46:01;3.38;;;1.55;;
55170;SDS011;41060;47.510;8.680;2022-09-03T11:48:33;1.95;;;0.93;;
55170;SDS011;41060;47.510;8.680;2022-09-03T11:51:02;1.10;;;0.70;;
55170;SDS011;41060;47.510;8.680;2022-09-03T11:53:35;1.42;;;0.75;;
55170;SDS011;41060;47.510;8.680;2022-09-03T11:56:11;0.85;;;0.63;;
55170;SDS011;41060;47.510;8.680;2022-09-03T11:58:44;1.27;;;0.60;;
55170;SDS011;41060;47.510;8.680;2022-09-03T12:01:12;1.35;;;0.85;;
55170;SDS011;41060;47.510;8.680;2022-09-03T12:03:42;2.00;;;0.80;;
55170;SDS011;41060;47.510;8.680;2022-09-03T12:06:25;0.70;;;0.55;;
55170;SDS011;41060;47.510;8.680;2022-09-03T12:12:24;1.02;;;0.57;;
55170;SDS011;41060;47.510;8.680;2022-09-03T12:15:02;1.85;;;0.80;;
55170;SDS011;41060;47.510;8.680;2022-09-03T12:17:36;4.18;;;1.25;;
55170;SDS011;41060;47.510;8.680;2022-09-03T12:20:14;1.33;;;0.80;;
55170;SDS011;41060;47.510;8.680;2022-09-03T12:22:48;1.27;;;0.85;;
55170;SDS011;41060;47.510;8.680;2022-09-03T12:25:16;2.13;;;0.70;;
55170;SDS011;41060;47.510;8.680;2022-09-03T12:27:43;1.88;;;0.70;;
55170;SDS011;41060;47.510;8.680;2022-09-03T12:30:14;1.77;;;0.90;;
55170;SDS011;41060;47.510;8.680;2022-09-03T12:32:43;1.08;;;0.80;;
55170;SDS011;41060;47.510;8.680;2022-09-03T12:35:12;1.40;;;0.80;;
55170;SDS011;41060;47.510;8.680;2022-09-03T12:37:45;1.52;;;0.80;;
55170;SDS011;41060;47.510;8.680;2022-09-03T12:40:16;1.95;;;0.70;;
55170;SDS011;41060;47.510;8.680;2022-09-03T12:42:48;0.85;;;0.47;;
55170;SDS011;41060;47.510;8.680;2022-09-03T12:45:17;3.38;;;1.00;;
55170;SDS011;41060;47.510;8.680;2022-09-03T12:47:46;2.25;;;0.73;;
55170;SDS011;41060;47.510;8.680;2022-09-03T12:50:13;2.15;;;0.90;;
55170;SDS011;41060;47.510;8.680;2022-09-03T12:52:43;0.90;;;0.57;;
55170;SDS011;41060;47.510;8.680;2022-09-03T12:55:20;1.17;;;0.80;;
55170;SDS011;41060;47.510;8.680;2022-09-03T12:57:55;0.55;;;0.47;;
55170;SDS011;41060;47.510;8.680;2022-09-03T13:00:29;0.63;;;0.50;;
55170;SDS011;41060;47.510;8.680;2022-09-03T13:02:59;1.05;;;0.77;;
55170;SDS011;41060;47.510;8.680;2022-09-03T13:05:31;0.70;;;0.47;;
55170;SDS011;41060;47.510;8.680;2022-09-03T13:08:01;1.10;;;0.57;;
55170;SDS011;41060;47.510;8.680;2022-09-03T13:10:34;1.25;;;0.70;;
55170;SDS011;41060;47.510;8.680;2022-09-03T13:13:14;0.70;;;0.40;;
55170;SDS011;41060;47.510;8.680;2022-09-03T13:18:38;1.23;;;0.80;;
55170;SDS011;41060;47.510;8.680;2022-09-03T13:21:17;0.80;;;0.55;;
55170;SDS011;41060;47.510;8.680;2022-09-03T13:24:02;0.73;;;0.43;;
55170;SDS011;41060;47.510;8.680;2022-09-03T13:26:44;0.70;;;0.57;;
55170;SDS011;41060;47.510;8.680;2022-09-03T13:29:21;1.85;;;0.50;;
55170;SDS011;41060;47.510;8.680;2022-09-03T13:32:06;1.77;;;0.88;;
55170;SDS011;41060;47.510;8.680;2022-09-03T13:34:52;1.40;;;0.80;;
55170;SDS011;41060;47.510;8.680;2022-09-03T13:37:24;2.00;;;0.77;;
55170;SDS011;41060;47.510;8.680;2022-09-03T13:39:56;1.35;;;0.90;;
55170;SDS011;41060;47.510;8.680;2022-09-03T13:42:30;1.35;;;0.73;;
55170;SDS011;41060;47.510;8.680;2022-09-03T13:45:02;1.13;;;0.88;;
55170;SDS011;41060;47.510;8.680;2022-09-03T13:47:38;0.95;;;0.60;;
55170;SDS011;41060;47.510;8.680;2022-09-03T13:50:30;0.80;;;0.70;;
55170;SDS011;41060;47.510;8.680;2022-09-03T13:53:06;2.70;;;0.70;;
55170;SDS011;41060;47.510;8.680;2022-09-03T13:55:42;1.08;;;0.70;;
55170;SDS011;41060;47.510;8.680;2022-09-03T13:58:19;0.90;;;0.52;;
55170;SDS011;41060;47.510;8.680;2022-09-03T14:00:53;0.98;;;0.70;;
55170;SDS011;41060;47.510;8.680;2022-09-03T14:03:34;0.65;;;0.50;;
55170;SDS011;41060;47.510;8.680;2022-09-03T14:06:05;2.38;;;0.60;;
55170;SDS011;41060;47.510;8.680;2022-09-03T14:08:39;1.50;;;0.70;;
55170;SDS011;41060;47.510;8.680;2022-09-03T14:11:20;1.50;;;0.88;;
55170;SDS011;41060;47.510;8.680;2022-09-03T14:13:58;0.80;;;0.52;;
55170;SDS011;41060;47.510;8.680;2022-09-03T14:16:34;1.20;;;0.75;;
55170;SDS011;41060;47.510;8.680;2022-09-03T14:19:05;1.35;;;0.88;;
55170;SDS011;41060;47.510;8.680;2022-09-03T14:21:40;0.90;;;0.60;;
55170;SDS011;41060;47.510;8.680;2022-09-03T14:24:12;1.10;;;0.70;;
55170;SDS011;41060;47.510;8.680;2022-09-03T14:26:48;1.07;;;0.67;;
55170;SDS011;41060;47.510;8.680;2022-09-03T14:29:19;0.80;;;0.60;;
55170;SDS011;41060;47.510;8.680;2022-09-03T14:31:58;1.00;;;0.73;;
55170;SDS011;41060;47.510;8.680;2022-09-03T14:34:41;1.52;;;0.80;;
55170;SDS011;41060;47.510;8.680;2022-09-03T14:37:23;1.10;;;0.70;;
55170;SDS011;41060;47.510;8.680;2022-09-03T14:40:09;3.85;;;0.60;;
55170;SDS011;41060;47.510;8.680;2022-09-03T14:42:46;1.08;;;0.50;;
55170;SDS011;41060;47.510;8.680;2022-09-03T14:45:27;1.73;;;0.60;;
55170;SDS011;41060;47.510;8.680;2022-09-03T14:48:13;1.45;;;0.80;;
55170;SDS011;41060;47.510;8.680;2022-09-03T14:51:00;1.55;;;0.60;;
55170;SDS011;41060;47.510;8.680;2022-09-03T14:56:53;0.90;;;0.80;;
55170;SDS011;41060;47.510;8.680;2022-09-03T15:02:31;1.90;;;0.90;;
55170;SDS011;41060;47.510;8.680;2022-09-03T15:05:14;2.15;;;0.70;;
55170;SDS011;41060;47.510;8.680;2022-09-03T15:07:47;1.45;;;0.80;;
55170;SDS011;41060;47.510;8.680;2022-09-03T15:10:21;1.92;;;0.90;;
55170;SDS011;41060;47.510;8.680;2022-09-03T15:12:57;1.45;;;0.63;;
55170;SDS011;41060;47.510;8.680;2022-09-03T15:15:34;1.38;;;0.90;;
55170;SDS011;41060;47.510;8.680;2022-09-03T15:18:16;2.00;;;0.80;;
55170;SDS011;41060;47.510;8.680;2022-09-03T15:20:53;2.22;;;0.65;;
55170;SDS011;41060;47.510;8.680;2022-09-03T15:23:30;1.65;;;0.82;;
55170;SDS011;41060;47.510;8.680;2022-09-03T15:26:20;1.30;;;0.77;;
55170;SDS011;41060;47.510;8.680;2022-09-03T15:29:17;1.73;;;0.82;;
55170;SDS011;41060;47.510;8.680;2022-09-03T15:31:58;1.08;;;0.70;;
55170;SDS011;41060;47.510;8.680;2022-09-03T15:34:43;1.77;;;1.10;;
55170;SDS011;41060;47.510;8.680;2022-09-03T15:37:24;2.78;;;0.98;;
55170;SDS011;41060;47.510;8.680;2022-09-03T15:39:58;1.10;;;0.70;;
55170;SDS011;41060;47.510;8.680;2022-09-03T15:42:31;1.20;;;0.70;;